Time;durP1;ratioP1;P1;durP2;ratioP2;P2;SDS_P1;SDS_P2;PMS_P1;PMS_P2;Temp;Humidity;BMP_temperature;BMP_pressure;BME280_temperature;BME280_humidity;BME280_pressure;Samples;Min_cycle;Max_cycle;Signal;HPM_P1;HPM_P2
2023/05/15 00:00:50;;;;;;;;;37.00;33.67;;;;;15.38;61.80;101281.63;4938346;28;45375;-69
2023/05/15 00:03:16;;;;;;;;;33.67;32.33;;;;;15.32;61.81;101278.78;4937222;28;45749;-69
2023/05/15 00:05:41;;;;;;;;;41.33;34.33;;;;;15.23;62.10;101279.75;4937718;28;46377;-69
2023/05/15 00:08:07;;;;;;;;;34.00;32.00;;;;;15.11;62.01;101253.25;4938130;28;45320;-69
2023/05/15 00:10:32;;;;;;;;;44.33;37.00;;;;;14.56;62.22;101167.16;4938500;28;45414;-69
2023/05/15 00:12:57;;;;;;;;;40.00;33.33;;;;;15.21;62.57;101272.69;4936125;28;45340;-69
2023/05/15 00:15:23;;;;;;;;;36.67;33.33;;;;;15.14;62.27;101263.63;4937569;28;45455;-69
2023/05/15 00:17:48;;;;;;;;;44.33;35.33;;;;;14.80;62.67;101219.94;4938039;28;51527;-70
2023/05/15 00:20:13;;;;;;;;;33.33;32.00;;;;;15.09;62.81;101268.63;4936501;28;45289;-69
2023/05/15 00:22:39;;;;;;;;;40.00;33.33;;;;;14.98;62.89;101257.34;4936862;28;45190;-69
2023/05/15 00:25:05;;;;;;;;;37.00;34.67;;;;;14.96;63.18;101265.53;4937616;28;46260;-69
2023/05/15 00:27:30;;;;;;;;;43.00;36.00;;;;;15.02;62.88;101264.94;4937659;28;45418;-70
2023/05/15 00:29:55;;;;;;;;;51.67;39.33;;;;;14.84;63.40;101248.94;4937946;28;45259;-69
2023/05/15 00:32:21;;;;;;;;;56.00;42.67;;;;;14.97;63.52;101263.72;4938150;28;45459;-70
2023/05/15 00:34:46;;;;;;;;;46.67;38.00;;;;;14.74;63.85;101242.00;4937744;28;48124;-69
2023/05/15 00:37:11;;;;;;;;;51.67;38.67;;;;;14.79;63.75;101253.91;4937414;28;45482;-69
2023/05/15 00:39:36;;;;;;;;;42.67;34.33;;;;;14.72;63.73;101231.47;4936057;28;55464;-69
2023/05/15 00:42:03;;;;;;;;;40.00;35.00;;;;;14.84;63.98;101261.47;4937631;28;50675;-70
2023/05/15 00:44:31;;;;;;;;;51.00;40.00;;;;;14.67;63.98;101239.13;4935913;28;47786;-70
2023/05/15 00:46:57;;;;;;;;;53.00;41.33;;;;;14.77;64.12;101249.72;4936534;28;45237;-69
2023/05/15 00:49:23;;;;;;;;;44.33;37.00;;;;;14.73;64.47;101243.00;4937822;28;45328;-70
2023/05/15 00:51:49;;;;;;;;;42.33;35.33;;;;;14.69;64.43;101228.28;4936855;28;45561;-70
2023/05/15 00:54:15;;;;;;;;;46.00;35.67;;;;;14.37;64.33;101180.72;4940850;28;45871;-70
2023/05/15 00:56:43;;;;;;;;;46.67;38.67;;;;;14.71;64.59;101235.13;4940477;28;45565;-70
2023/05/15 00:59:09;;;;;;;;;48.67;39.33;;;;;14.74;64.71;101242.84;4939385;28;45390;-70
2023/05/15 01:01:35;;;;;;;;;44.33;37.00;;;;;14.74;64.69;101250.03;4940832;28;45585;-69
2023/05/15 01:04:01;;;;;;;;;55.00;41.33;;;;;14.71;64.89;101248.53;4940740;28;45586;-70
2023/05/15 01:06:27;;;;;;;;;48.00;39.33;;;;;14.60;65.23;101216.66;4939195;28;45460;-70
2023/05/15 01:08:56;;;;;;;;;41.33;36.33;;;;;14.68;65.08;101239.97;4951974;28;45515;-70
2023/05/15 01:11:26;;;;;;;;;51.00;39.00;;;;;14.68;65.23;101240.81;4934708;28;45651;-70
2023/05/15 01:13:51;;;;;;;;;49.67;41.67;;;;;14.68;64.76;101256.88;4942205;28;49173;-69
2023/05/15 01:16:17;;;;;;;;;49.33;39.00;;;;;14.55;65.97;101241.22;4942547;28;45964;-70
2023/05/15 01:18:42;;;;;;;;;49.67;43.33;;;;;14.52;66.02;101240.72;4960222;28;45474;-70
2023/05/15 01:21:44;;;;;;;;;48.67;40.00;;;;;14.57;65.75;101241.06;4942669;28;45585;-69
2023/05/15 01:24:52;;;;;;;;;51.67;41.67;;;;;14.51;65.67;101231.00;4959378;28;45752;-70
2023/05/15 01:27:38;;;;;;;;;51.67;43.33;;;;;14.54;66.06;101244.06;4959970;28;45364;-69
2023/05/15 01:30:11;;;;;;;;;52.67;43.33;;;;;14.52;66.33;101235.34;4959882;28;45411;-68
2023/05/15 01:33:02;;;;;;;;;56.33;44.00;;;;;14.46;66.44;101241.34;4960109;28;45205;-69
2023/05/15 01:35:42;;;;;;;;;40.67;38.33;;;;;14.44;66.69;101246.00;4921648;28;48391;-69
2023/05/15 01:38:20;;;;;;;;;50.33;41.67;;;;;14.38;66.31;101227.88;4959745;28;45256;-69
2023/05/15 01:40:47;;;;;;;;;53.33;43.00;;;;;13.93;66.59;101162.03;4959736;28;45518;-69
2023/05/15 01:43:20;;;;;;;;;53.67;44.00;;;;;14.39;66.36;101240.25;4959625;28;45335;-70
2023/05/15 01:45:46;;;;;;;;;51.00;42.00;;;;;14.41;66.14;101251.63;4959577;28;45840;-69
2023/05/15 01:48:14;;;;;;;;;52.67;43.33;;;;;14.32;66.13;101235.53;4959491;28;45411;-69
2023/05/15 01:50:41;;;;;;;;;60.00;46.33;;;;;13.77;66.32;101143.19;4942491;28;45594;-69
2023/05/15 01:53:09;;;;;;;;;60.33;46.33;;;;;14.31;66.71;101246.38;4942425;28;45261;-69
2023/05/15 01:55:36;;;;;;;;;51.67;40.33;;;;;14.14;66.60;101232.03;4959292;28;45901;-70
2023/05/15 01:58:01;;;;;;;;;56.67;42.33;;;;;14.04;67.00;101225.97;4959050;28;45327;-70
2023/05/15 02:00:28;;;;;;;;;55.00;45.00;;;;;14.02;67.00;101227.97;4958618;28;45537;-70
2023/05/15 02:02:56;;;;;;;;;56.67;46.67;;;;;14.02;67.37;101233.31;4954684;28;45650;-71
2023/05/15 02:05:22;;;;;;;;;58.33;46.33;;;;;14.01;67.42;101244.97;4958576;28;46317;-70
2023/05/15 02:07:48;;;;;;;;;55.33;46.00;;;;;13.97;67.29;101235.56;4943991;28;45182;-69
2023/05/15 02:10:17;;;;;;;;;53.00;43.33;;;;;13.87;67.66;101237.50;4959425;28;45366;-70
2023/05/15 02:12:43;;;;;;;;;53.33;43.33;;;;;13.06;67.52;101110.16;4958232;28;45292;-71
2023/05/15 02:15:10;;;;;;;;;56.33;46.00;;;;;13.85;67.67;101255.53;4939636;28;46296;-71
2023/05/15 02:17:35;;;;;;;;;58.33;46.33;;;;;13.85;67.64;101244.84;4939845;28;45217;-70
2023/05/15 02:20:01;;;;;;;;;50.00;41.33;;;;;13.40;67.40;101152.22;4958358;28;45428;-70
2023/05/15 02:22:26;;;;;;;;;59.00;45.67;;;;;13.88;67.32;101245.38;4943884;28;45571;-71
2023/05/15 02:24:52;;;;;;;;;52.67;41.00;;;;;13.92;67.00;101237.88;4958784;28;46288;-71
2023/05/15 02:27:26;;;;;;;;;53.67;44.67;;;;;13.93;66.98;101228.88;4956311;28;45465;-71
2023/05/15 02:30:13;;;;;;;;;54.67;43.67;;;;;13.88;66.89;101231.16;4940828;28;45261;-69
2023/05/15 02:33:06;;;;;;;;;58.33;47.00;;;;;14.01;66.71;101239.63;4957650;28;45593;-70
2023/05/15 02:35:51;;;;;;;;;52.67;43.67;;;;;13.54;66.19;101162.38;4931495;28;46168;-70
2023/05/15 02:38:22;;;;;;;;;60.33;48.33;;;;;14.00;65.97;101227.25;4953732;28;45581;-70
2023/05/15 02:40:48;;;;;;;;;54.67;44.00;;;;;14.08;65.51;101240.69;4939673;28;45492;-70
2023/05/15 02:43:17;;;;;;;;;51.67;42.00;;;;;14.02;65.88;101227.97;4946300;28;46025;-69
2023/05/15 02:45:45;;;;;;;;;52.33;43.00;;;;;14.08;65.39;101240.69;4941411;28;48481;-70
2023/05/15 02:48:12;;;;;;;;;51.67;41.00;;;;;14.04;65.24;101220.63;4953984;28;45320;-70
2023/05/15 02:50:38;;;;;;;;;57.67;45.33;;;;;13.97;65.67;101219.53;4930027;28;45550;-70
2023/05/15 02:53:04;;;;;;;;;54.33;45.33;;;;;13.39;65.77;101131.84;4958581;28;45452;-69
2023/05/15 02:55:30;;;;;;;;;55.33;42.33;;;;;14.01;65.71;101223.56;4957944;28;46654;-70
2023/05/15 02:57:56;;;;;;;;;58.00;45.67;;;;;13.85;65.52;101215.44;4948718;28;45793;-70
2023/05/15 03:00:22;;;;;;;;;56.33;43.00;;;;;13.83;65.47;101222.78;4939382;28;45234;-70
2023/05/15 03:02:47;;;;;;;;;50.00;42.00;;;;;13.75;65.24;101204.81;4953548;28;45508;-68
2023/05/15 03:05:12;;;;;;;;;56.33;43.67;;;;;13.77;65.39;101213.50;4929243;28;47532;-69
2023/05/15 03:07:40;;;;;;;;;54.00;43.67;;;;;13.85;65.24;101215.44;4957210;28;45256;-69
2023/05/15 03:10:06;;;;;;;;;53.00;41.33;;;;;13.79;65.13;101221.38;4921988;28;45439;-69
2023/05/15 03:12:31;;;;;;;;;55.67;44.00;;;;;13.68;65.57;101212.63;4931136;28;45635;-69
2023/05/15 03:14:56;;;;;;;;;58.33;46.33;;;;;13.75;65.33;101225.34;4958137;28;46095;-70
2023/05/15 03:17:22;;;;;;;;;59.00;43.50;;;;;13.58;65.56;101213.66;4958347;28;45251;-70
2023/05/15 03:19:47;;;;;;;;;55.00;43.67;;;;;13.55;65.77;101220.16;4957863;28;45288;-70
2023/05/15 03:22:13;;;;;;;;;58.00;47.00;;;;;13.60;65.82;101223.19;4957525;28;45333;-69
2023/05/15 03:24:38;;;;;;;;;59.00;47.00;;;;;13.49;65.55;101206.56;4947012;28;45552;-68
2023/05/15 03:27:04;;;;;;;;;62.00;48.00;;;;;13.57;66.00;101218.16;4958111;28;45331;-70
2023/05/15 03:29:29;;;;;;;;;55.67;45.33;;;;;13.50;65.71;101194.91;4943794;28;45504;-69
2023/05/15 03:31:54;;;;;;;;;53.00;42.67;;;;;13.57;65.53;101228.00;4939193;28;45483;-69
2023/05/15 03:34:20;;;;;;;;;56.67;44.33;;;;;13.43;66.07;101209.84;4938620;28;45637;-69
2023/05/15 03:36:45;;;;;;;;;53.67;43.67;;;;;13.36;65.81;101207.78;4938758;28;45398;-69
2023/05/15 03:39:10;;;;;;;;;54.33;43.67;;;;;13.40;65.93;101218.97;4939041;28;45431;-69
2023/05/15 03:41:36;;;;;;;;;54.67;41.33;;;;;13.48;65.83;101212.91;4952764;28;45300;-69
2023/05/15 03:44:01;;;;;;;;;57.67;46.67;;;;;13.01;65.14;101122.25;4957666;28;46191;-70
2023/05/15 03:46:27;;;;;;;;;58.33;46.00;;;;;13.58;65.15;101206.50;4958021;28;45277;-69
2023/05/15 03:48:53;;;;;;;;;55.00;42.00;;;;;13.70;64.88;101215.13;4958121;28;45308;-70
2023/05/15 03:51:19;;;;;;;;;56.00;44.00;;;;;13.77;64.64;101212.69;4958107;28;45416;-69
2023/05/15 03:53:44;;;;;;;;;51.33;42.00;;;;;13.67;64.29;101213.59;4957449;28;46733;-70
2023/05/15 03:56:10;;;;;;;;;54.00;42.67;;;;;13.60;64.93;101212.50;4957568;28;45474;-69
2023/05/15 03:58:35;;;;;;;;;55.00;42.67;;;;;13.47;64.90;101206.72;4939578;28;45407;-70
2023/05/15 04:01:01;;;;;;;;;50.67;40.33;;;;;13.43;64.68;101209.84;4957270;28;45316;-69
2023/05/15 04:03:26;;;;;;;;;50.00;41.33;;;;;13.51;65.04;101229.47;4957270;28;46334;-69
2023/05/15 04:05:51;;;;;;;;;50.33;39.67;;;;;13.05;64.57;101164.53;4957177;28;45446;-70
2023/05/15 04:08:17;;;;;;;;;53.00;42.33;;;;;13.31;64.15;101207.38;4957586;28;45896;-70
2023/05/15 04:10:42;;;;;;;;;54.33;44.33;;;;;13.37;64.08;101221.97;4940325;28;45368;-69
2023/05/15 04:13:07;;;;;;;;;45.00;33.33;;;;;13.24;64.15;101216.16;4956225;28;59912;-68
2023/05/15 04:15:34;;;;;;;;;53.00;41.67;;;;;13.26;64.32;101219.53;4957503;28;45398;-72
2023/05/15 04:17:59;;;;;;;;;52.00;42.33;;;;;13.24;64.80;101234.84;4957325;28;45506;-69
2023/05/15 04:20:25;;;;;;;;;50.00;42.33;;;;;13.17;64.72;101209.69;4940032;28;45523;-69
2023/05/15 04:22:52;;;;;;;;;50.33;42.67;;;;;13.28;64.45;101230.88;4939120;28;48313;-69
2023/05/15 04:25:19;;;;;;;;;51.00;40.00;;;;;13.22;64.73;101228.81;4957318;28;45459;-69
2023/05/15 04:27:45;;;;;;;;;50.67;41.33;;;;;13.17;64.78;101226.53;4958918;28;45299;-69
2023/05/15 04:30:11;;;;;;;;;52.67;42.33;;;;;13.28;64.70;101234.41;4942812;28;45379;-70
2023/05/15 04:32:37;;;;;;;;;50.67;41.67;;;;;13.34;64.38;101233.78;4942863;28;47695;-71
2023/05/15 04:35:04;;;;;;;;;55.33;41.33;;;;;13.09;64.74;101205.09;4960139;28;45358;-70
2023/05/15 04:37:30;;;;;;;;;53.33;42.33;;;;;13.22;64.64;101228.81;4960504;28;45560;-71
2023/05/15 04:39:55;;;;;;;;;52.00;41.00;;;;;13.12;64.75;101207.47;4960869;28;45402;-70
2023/05/15 04:42:20;;;;;;;;;52.00;41.00;;;;;13.24;64.89;101214.34;4959793;28;53697;-71
2023/05/15 04:44:46;;;;;;;;;47.67;40.00;;;;;12.51;64.69;101105.84;4960034;28;46363;-71
2023/05/15 04:47:11;;;;;;;;;49.00;39.33;;;;;13.19;65.02;101215.75;4960589;28;45271;-70
2023/05/15 04:49:37;;;;;;;;;46.33;38.67;;;;;13.12;64.51;101203.97;4942915;28;45482;-70
2023/05/15 04:52:03;;;;;;;;;50.00;40.33;;;;;13.18;64.85;101206.06;4960090;28;45799;-69
2023/05/15 04:54:28;;;;;;;;;47.00;39.67;;;;;13.06;64.82;101195.56;4942471;28;45283;-70
2023/05/15 04:56:54;;;;;;;;;51.33;41.33;;;;;13.31;64.97;101223.41;4959501;28;57782;-69
2023/05/15 04:59:19;;;;;;;;;50.33;40.00;;;;;13.29;64.47;101211.22;4959550;28;45458;-70
2023/05/15 05:01:44;;;;;;;;;50.33;40.33;;;;;13.46;64.49;101221.06;4959946;28;46509;-70
2023/05/15 05:04:10;;;;;;;;;48.67;39.67;;;;;13.36;64.03;101199.75;4960026;28;48445;-69
2023/05/15 05:06:35;;;;;;;;;55.67;42.00;;;;;13.54;64.11;101217.63;4960068;28;45348;-70
2023/05/15 05:09:00;;;;;;;;;51.67;41.33;;;;;13.38;64.18;101196.94;4960411;28;46285;-70
2023/05/15 05:11:26;;;;;;;;;57.00;42.00;;;;;13.50;64.08;101217.09;4959983;28;45366;-70
2023/05/15 05:13:51;;;;;;;;;57.33;45.00;;;;;13.39;64.37;101204.78;4959396;28;50553;-70
2023/05/15 05:16:16;;;;;;;;;57.00;40.67;;;;;13.24;64.38;101194.81;4942470;28;45296;-71
2023/05/15 05:18:42;;;;;;;;;53.67;42.67;;;;;13.38;64.57;101212.97;4959507;28;45489;-70
2023/05/15 05:21:07;;;;;;;;;54.33;43.00;;;;;13.33;64.03;101191.22;4959362;28;45808;-71
2023/05/15 05:23:32;;;;;;;;;52.00;42.67;;;;;12.98;64.22;101131.41;4959626;28;45316;-69
2023/05/15 05:26:02;;;;;;;;;51.33;40.33;;;;;13.53;63.96;101206.13;4959271;28;45260;-70
2023/05/15 05:28:27;;;;;;;;;52.00;40.33;;;;;13.73;63.99;101217.50;4959613;28;45256;-69
2023/05/15 05:30:53;;;;;;;;;50.33;39.33;;;;;13.75;63.32;101196.78;4959182;28;45739;-71
2023/05/15 05:33:18;;;;;;;;;48.67;38.67;;;;;13.86;63.12;101196.56;4942036;28;45305;-70
2023/05/15 05:35:43;;;;;;;;;47.00;38.67;;;;;13.94;63.14;101199.31;4942383;28;45340;-71
2023/05/15 05:38:09;;;;;;;;;60.33;46.67;;;;;14.06;62.47;101212.44;4958322;28;45320;-70
2023/05/15 05:40:34;;;;;;;;;53.33;43.33;;;;;14.11;62.74;101227.00;4941987;28;47770;-70
2023/05/15 05:43:03;;;;;;;;;46.67;40.00;;;;;14.00;62.62;101197.84;4943253;28;45551;-71
2023/05/15 05:45:29;;;;;;;;;49.00;41.33;;;;;14.24;62.59;101223.94;4957891;28;45495;-72
2023/05/15 05:47:57;;;;;;;;;56.33;42.33;;;;;14.19;62.41;101224.38;4941958;28;45612;-72
2023/05/15 05:50:24;;;;;;;;;54.33;41.67;;;;;14.17;62.39;101209.50;4958980;28;46595;-70
2023/05/15 05:52:49;;;;;;;;;51.67;40.33;;;;;14.25;62.26;101210.41;4959362;28;45328;-70
2023/05/15 05:55:15;;;;;;;;;47.00;36.00;;;;;14.39;62.46;101218.84;4956438;28;45592;-73
2023/05/15 05:57:41;;;;;;;;;48.67;41.00;;;;;14.31;62.38;101199.06;4958457;28;45420;-71
2023/05/15 06:00:10;;;;;;;;;48.67;39.67;;;;;14.25;62.51;101186.34;4956856;28;46310;-71
2023/05/15 06:02:36;;;;;;;;;49.33;41.00;;;;;14.40;62.63;101204.47;4940286;28;46481;-70
2023/05/15 06:05:02;;;;;;;;;42.67;39.33;;;;;14.51;63.03;101231.84;4957697;28;45272;-70
2023/05/15 06:07:28;;;;;;;;;47.00;40.33;;;;;14.46;63.09;101212.75;4959134;28;45529;-71
2023/05/15 06:09:53;;;;;;;;;52.67;43.33;;;;;14.36;63.50;101211.97;4958339;28;46513;-69
2023/05/15 06:12:18;;;;;;;;;51.33;40.33;;;;;14.40;64.11;101229.38;4957548;28;45635;-71
2023/05/15 06:14:45;;;;;;;;;51.00;41.33;;;;;13.81;64.10;101125.84;4958265;28;45296;-72
2023/05/15 06:17:10;;;;;;;;;49.00;41.00;;;;;14.45;64.40;101237.84;4941685;28;45559;-72
2023/05/15 06:19:35;;;;;;;;;43.67;37.67;;;;;14.51;64.37;101233.69;4956964;28;45427;-71
2023/05/15 06:22:01;;;;;;;;;51.00;39.33;;;;;14.46;64.11;101238.66;4940626;28;45423;-74
2023/05/15 06:24:26;;;;;;;;;43.67;35.67;;;;;14.45;64.61;101239.66;4940834;28;45560;-77
2023/05/15 06:26:52;;;;;;;;;46.67;39.67;;;;;14.43;64.95;101241.63;4957328;28;45184;-70
2023/05/15 06:29:17;;;;;;;;;51.33;40.33;;;;;14.16;65.07;101203.31;4937371;28;48246;-70
2023/05/15 06:31:42;;;;;;;;;47.33;38.00;;;;;14.45;65.06;101237.84;4954538;28;45465;-71
2023/05/15 06:34:08;;;;;;;;;51.67;39.33;;;;;14.52;64.97;101246.06;4955524;28;45550;-71
2023/05/15 06:36:34;;;;;;;;;50.67;40.67;;;;;14.39;64.97;101218.84;4939158;28;45614;-72
2023/05/15 06:38:59;;;;;;;;;49.33;38.67;;;;;14.63;64.89;101248.50;4938844;28;48096;-72
2023/05/15 06:41:25;;;;;;;;;49.33;38.00;;;;;14.71;64.98;101243.16;4956499;28;45651;-71
2023/05/15 06:43:50;;;;;;;;;55.67;43.67;;;;;14.62;64.83;101214.69;4957285;28;45470;-70
2023/05/15 06:46:17;;;;;;;;;37.00;28.00;;;;;14.75;64.79;101235.66;4958189;28;45169;-72
2023/05/15 06:48:43;;;;;;;;;49.67;36.33;;;;;14.86;64.93;101249.63;4948554;28;46202;-71
2023/05/15 06:51:09;;;;;;;;;44.00;36.33;;;;;14.95;64.82;101236.25;4957127;28;45340;-72
2023/05/15 06:53:34;;;;;;;;;50.33;38.33;;;;;14.89;63.99;101230.56;4940543;28;45290;-75
2023/05/15 06:55:59;;;;;;;;;47.67;39.67;;;;;14.88;63.96;101238.75;4950970;28;45522;-74
2023/05/15 06:58:25;;;;;;;;;43.33;36.00;;;;;14.48;63.58;101148.38;4957670;28;46419;-73
2023/05/15 07:00:50;;;;;;;;;57.33;40.00;;;;;15.01;63.66;101222.22;4957856;28;45659;-73
2023/05/15 07:03:16;;;;;;;;;47.00;37.67;;;;;14.87;63.64;101203.09;4958011;28;45370;-74
2023/05/15 07:05:41;;;;;;;;;50.33;35.67;;;;;15.09;63.49;101223.09;4940745;28;45586;-73
2023/05/15 07:08:07;;;;;;;;;48.67;38.67;;;;;15.17;63.67;101224.97;4958155;28;45721;-74
2023/05/15 07:10:32;;;;;;;;;60.33;45.67;;;;;14.75;63.22;101150.00;4938277;28;45455;-74
2023/05/15 07:12:58;;;;;;;;;46.67;37.67;;;;;15.25;63.53;101249.13;4957146;28;45975;-73
2023/05/15 07:15:23;;;;;;;;;38.00;34.33;;;;;15.24;63.49;101242.09;4955331;28;46364;-74
2023/05/15 07:17:48;;;;;;;;;43.33;36.67;;;;;15.19;63.65;101222.97;4941137;28;45442;-73
2023/05/15 07:20:14;;;;;;;;;48.00;38.67;;;;;15.42;63.39;101242.81;4958114;28;45409;-74
2023/05/15 07:22:40;;;;;;;;;42.33;35.33;;;;;15.48;63.23;101234.13;4957942;28;45297;-73
2023/05/15 07:25:05;;;;;;;;;43.33;34.00;;;;;15.43;63.11;101215.03;4940844;28;45517;-73
2023/05/15 07:27:31;;;;;;;;;47.67;37.67;;;;;15.47;63.05;101219.03;4957317;28;46475;-73
2023/05/15 07:29:56;;;;;;;;;50.67;41.67;;;;;15.62;62.71;101227.31;4957439;28;45483;-76
2023/05/15 07:32:22;;;;;;;;;43.00;35.00;;;;;15.66;62.78;101225.97;4955923;28;45438;-76
2023/05/15 07:34:47;;;;;;;;;47.33;37.67;;;;;15.59;62.64;101214.22;4944022;28;45575;-74
2023/05/15 07:37:12;;;;;;;;;42.67;32.67;;;;;15.81;61.91;101223.47;4952824;28;46292;-74
2023/05/15 07:39:38;;;;;;;;;45.67;35.00;;;;;15.92;62.26;101228.50;4954007;28;45440;-75
2023/05/15 07:42:03;;;;;;;;;50.00;35.67;;;;;15.94;61.57;101226.50;4942602;28;45487;-75
2023/05/15 07:44:29;;;;;;;;;38.33;32.67;;;;;15.88;61.99;101218.28;4937384;28;45552;-75
2023/05/15 07:46:55;;;;;;;;;38.00;34.33;;;;;15.95;62.00;101216.59;4948301;28;59591;-74
2023/05/15 07:49:20;;;;;;;;;39.33;33.00;;;;;16.10;61.33;101239.06;4940168;28;45538;-74
2023/05/15 07:51:46;;;;;;;;;39.00;33.00;;;;;16.15;61.26;101222.47;4957387;28;45804;-73
2023/05/15 07:54:11;;;;;;;;;42.67;36.00;;;;;16.25;61.01;101237.41;4940562;28;45633;-74
2023/05/15 07:56:36;;;;;;;;;39.33;34.33;;;;;15.86;60.91;101151.44;4939516;28;47454;-73
2023/05/15 07:59:02;;;;;;;;;39.00;32.33;;;;;16.38;60.65;101221.59;4940105;28;45624;-75
2023/05/15 08:01:28;;;;;;;;;33.00;32.33;;;;;16.07;59.98;101154.41;4954255;28;45351;-74
2023/05/15 08:03:53;;;;;;;;;43.00;33.67;;;;;16.63;60.23;101238.50;4951059;28;45260;-73
2023/05/15 08:06:18;;;;;;;;;41.33;34.67;;;;;16.70;59.85;101236.84;4950869;28;45695;-75
2023/05/15 08:08:44;;;;;;;;;48.67;37.67;;;;;16.23;60.08;101166.97;4951470;28;45478;-73
2023/05/15 08:11:09;;;;;;;;;39.67;35.67;;;;;16.75;60.07;101236.31;4946985;28;45450;-73
2023/05/15 08:13:34;;;;;;;;;41.33;34.00;;;;;16.78;59.84;101227.91;4953101;28;45342;-74
2023/05/15 08:16:00;;;;;;;;;49.00;36.00;;;;;16.69;59.61;101232.47;4958944;28;46256;-73
2023/05/15 08:18:25;;;;;;;;;39.67;34.67;;;;;16.08;60.13;101149.91;4942846;28;46086;-73
2023/05/15 08:20:51;;;;;;;;;35.67;32.67;;;;;16.62;60.38;101234.16;4961167;28;45516;-74
2023/05/15 08:23:16;;;;;;;;;38.00;34.00;;;;;16.64;60.53;101225.94;4961396;28;45243;-75
2023/05/15 08:25:42;;;;;;;;;40.00;33.67;;;;;16.69;60.21;101228.97;4960823;28;46575;-77
2023/05/15 08:28:07;;;;;;;;;45.67;35.67;;;;;16.56;60.85;101234.81;4969941;28;45376;-73
2023/05/15 08:30:32;;;;;;;;;47.67;36.00;;;;;16.46;60.92;101218.09;4943045;28;45483;-73
2023/05/15 08:32:58;;;;;;;;;35.00;29.33;;;;;16.17;60.90;101156.91;4942510;28;45498;-73
2023/05/15 08:35:23;;;;;;;;;45.67;34.33;;;;;16.53;60.80;101202.97;4960253;28;46078;-75
2023/05/15 08:37:48;;;;;;;;;28.33;26.00;;;;;16.68;60.80;101228.13;4943013;28;46246;-71
2023/05/15 08:40:14;;;;;;;;;42.67;37.00;;;;;16.63;60.21;101197.41;4943083;28;45709;-73
2023/05/15 08:42:53;;;;;;;;;40.00;33.00;;;;;16.87;60.41;101220.69;4938814;28;45433;-72
2023/05/15 08:45:19;;;;;;;;;48.67;39.00;;;;;16.83;60.14;101220.19;4941494;28;47587;-72
2023/05/15 08:47:45;;;;;;;;;40.67;33.33;;;;;16.89;60.38;101215.97;4957702;28;45549;-74
2023/05/15 08:50:12;;;;;;;;;40.67;34.67;;;;;17.02;60.10;101218.94;4960536;28;45423;-72
2023/05/15 08:52:40;;;;;;;;;38.67;34.00;;;;;16.58;59.68;101141.53;4957824;28;45529;-76
2023/05/15 08:55:06;;;;;;;;;36.67;33.00;;;;;17.01;59.83;101193.06;4942512;28;46418;-73
2023/05/15 08:57:32;;;;;;;;;47.33;37.00;;;;;17.21;59.66;101218.50;4958317;28;45379;-73
2023/05/15 08:59:59;;;;;;;;;41.33;36.33;;;;;17.07;59.37;101196.94;4942823;28;45415;-72
2023/05/15 09:02:25;;;;;;;;;46.00;37.33;;;;;17.23;59.54;101192.31;4943262;28;45484;-75
2023/05/15 09:04:50;;;;;;;;;41.00;35.00;;;;;17.31;58.96;101200.31;4941765;28;46579;-73
2023/05/15 09:07:16;;;;;;;;;48.33;36.33;;;;;17.39;58.68;101196.72;4945473;28;45567;-78
2023/05/15 09:09:43;;;;;;;;;39.00;35.00;;;;;17.23;58.49;101145.81;4946708;28;45263;-73
2023/05/15 09:12:12;;;;;;;;;41.33;37.33;;;;;17.66;58.19;101219.59;4932479;28;45544;-75
2023/05/15 09:14:39;;;;;;;;;45.33;37.67;;;;;17.59;58.14;101197.94;4959394;28;47775;-73
2023/05/15 09:17:04;;;;;;;;;43.33;36.00;;;;;17.76;57.81;101211.31;4940242;28;45600;-73
2023/05/15 09:19:32;;;;;;;;;47.33;35.67;;;;;17.66;57.91;101208.84;4940008;28;45631;-73
2023/05/15 09:22:16;;;;;;;;;42.00;34.33;;;;;17.80;57.65;101213.47;4947515;28;45304;-73
2023/05/15 09:24:43;;;;;;;;;37.67;33.33;;;;;17.83;57.76;101191.59;4941530;28;46673;-74
2023/05/15 09:27:09;;;;;;;;;46.33;37.00;;;;;18.14;56.84;101209.50;4941091;28;45618;-71
2023/05/15 09:29:36;;;;;;;;;42.67;37.00;;;;;17.71;56.33;101125.81;4958309;28;45514;-74
2023/05/15 09:32:03;;;;;;;;;47.33;38.00;;;;;18.18;56.12;101198.16;4958733;28;45528;-73
2023/05/15 09:34:34;;;;;;;;;47.00;36.67;;;;;18.11;56.93;101193.72;4941452;28;46574;-73
2023/05/15 09:37:08;;;;;;;;;41.00;35.00;;;;;18.08;56.72;101183.31;4937375;28;45599;-74
2023/05/15 09:39:40;;;;;;;;;50.00;39.33;;;;;18.03;56.39;101183.03;4957882;28;45535;-73
2023/05/15 09:42:07;;;;;;;;;42.00;36.00;;;;;18.14;56.73;101196.03;4941063;28;46297;-75
2023/05/15 09:44:33;;;;;;;;;48.67;38.67;;;;;18.27;56.67;101204.34;4958749;28;47695;-74
2023/05/15 09:47:02;;;;;;;;;51.67;39.33;;;;;18.31;56.28;101200.25;4946469;28;45446;-75
2023/05/15 09:49:28;;;;;;;;;50.00;37.67;;;;;18.29;56.08;101201.47;4941995;28;45755;-74
2023/05/15 09:51:57;;;;;;;;;45.67;35.67;;;;;17.85;56.15;101153.78;4941714;28;45372;-75
2023/05/15 09:54:23;;;;;;;;;43.67;38.33;;;;;18.07;55.83;101181.66;4958412;28;46535;-75
2023/05/15 09:56:48;;;;;;;;;48.33;38.67;;;;;18.27;56.09;101207.03;4941198;28;45365;-75
2023/05/15 09:59:17;;;;;;;;;48.00;39.00;;;;;18.17;56.00;101192.97;4957168;28;45321;-75
2023/05/15 10:01:44;;;;;;;;;50.33;38.67;;;;;18.31;55.70;101194.03;4939841;28;45524;-73
2023/05/15 10:04:11;;;;;;;;;46.00;37.00;;;;;18.49;55.62;101214.19;4940126;28;47899;-72
2023/05/15 10:06:47;;;;;;;;;51.33;38.67;;;;;18.59;55.14;101223.84;4943837;28;45272;-73
2023/05/15 10:09:13;;;;;;;;;52.00;38.67;;;;;18.57;55.48;101198.97;4959006;28;45524;-74
2023/05/15 10:11:42;;;;;;;;;38.00;33.67;;;;;18.74;55.28;101212.09;4941560;28;45501;-73
2023/05/15 10:14:09;;;;;;;;;46.00;36.33;;;;;18.63;54.75;101209.06;4952250;28;47030;-72
2023/05/15 10:16:36;;;;;;;;;47.00;38.67;;;;;17.72;54.83;101059.41;4953387;28;45415;-73
2023/05/15 10:19:07;;;;;;;;;47.67;38.33;;;;;18.62;54.99;101213.56;4958429;28;45560;-74
2023/05/15 10:21:38;;;;;;;;;52.67;41.33;;;;;18.15;55.10;101146.56;4940557;28;45354;-73
2023/05/15 10:24:05;;;;;;;;;49.33;40.00;;;;;18.66;55.57;101230.22;4958188;28;45815;-75
2023/05/15 10:26:39;;;;;;;;;45.67;35.67;;;;;18.00;55.15;101125.03;4929967;28;45489;-75
2023/05/15 10:29:08;;;;;;;;;52.00;42.33;;;;;18.50;55.54;101207.78;4942642;28;45289;-74
2023/05/15 10:31:35;;;;;;;;;49.00;38.33;;;;;18.40;55.76;101209.91;4948278;28;45485;-79
2023/05/15 10:34:01;;;;;;;;;52.00;40.67;;;;;18.40;56.07;101220.66;4940354;28;46608;-73
2023/05/15 10:36:27;;;;;;;;;53.00;41.67;;;;;18.06;56.27;101169.22;4931863;28;45495;-73
2023/05/15 10:38:53;;;;;;;;;48.00;40.67;;;;;18.42;56.18;101213.28;4977710;28;45597;-74
2023/05/15 10:41:20;;;;;;;;;51.33;40.67;;;;;18.59;56.07;101207.69;4968899;28;45801;-74
2023/05/15 10:43:47;;;;;;;;;43.33;35.00;;;;;18.75;55.74;101199.47;4937137;28;47543;-74
2023/05/15 10:46:14;;;;;;;;;49.67;40.33;;;;;18.93;55.29;101199.91;4933021;28;45510;-79
2023/05/15 10:48:40;;;;;;;;;48.67;38.00;;;;;19.14;54.45;101207.22;4940866;28;45422;-74
2023/05/15 10:51:17;;;;;;;;;49.00;39.00;;;;;19.20;54.05;101203.78;4958317;28;45335;-73
2023/05/15 10:53:44;;;;;;;;;44.00;34.00;;;;;19.24;53.53;101194.31;4958917;28;45697;-73
2023/05/15 10:56:16;;;;;;;;;46.67;39.33;;;;;19.08;53.18;101140.63;4955958;28;45422;-73
2023/05/15 10:58:47;;;;;;;;;50.00;39.33;;;;;19.50;52.68;101199.16;4940867;28;45361;-74
2023/05/15 11:01:32;;;;;;;;;50.33;38.33;;;;;19.02;52.28;101101.81;4955732;28;45638;-73
2023/05/15 11:04:15;;;;;;;;;39.33;32.00;;;;;19.13;52.04;101108.53;4956741;28;46788;-74
2023/05/15 11:06:43;;;;;;;;;42.67;37.00;;;;;19.74;51.88;101197.97;4956587;28;45527;-72
2023/05/15 11:09:20;;;;;;;;;46.67;38.67;;;;;19.72;51.92;101203.56;4957803;28;45453;-75